Time;durP1;ratioP1;P1;durP2;ratioP2;P2;SDS_P1;SDS_P2;PMS_P1;PMS_P2;Temp;Humidity;BMP_temperature;BMP_pressure;BME280_temperature;BME280_humidity;BME280_pressure;Samples;Min_cycle;Max_cycle;Signal;HPM_P1;HPM_P2
2021/01/02 00:01:27;;;;;;;11.22;7.33;;;;;;;3.64;71.73;99408.13;1773000;80;21051;-41
2021/01/02 00:04:05;;;;;;;11.00;7.37;;;;;;;3.64;71.91;99407.33;1773682;79;21138;-41
2021/01/02 00:06:55;;;;;;;10.10;6.90;;;;;;;3.71;71.41;99409.02;1775929;79;21597;-41
2021/01/02 00:09:23;;;;;;;11.97;7.08;;;;;;;3.68;71.18;99417.70;1777430;79;21323;-41
2021/01/02 00:12:08;;;;;;;11.97;7.62;;;;;;;3.58;71.19;99422.80;1803157;79;21167;-41
2021/01/02 00:15:04;;;;;;;10.70;6.90;;;;;;;3.53;70.98;99428.30;1784591;78;21019;-41
2021/01/02 00:18:08;;;;;;;11.25;6.87;;;;;;;3.57;71.04;99433.83;1779945;79;21143;-41
2021/01/02 00:21:20;;;;;;;9.93;6.87;;;;;;;3.60;70.55;99433.19;1774264;79;21180;-41
2021/01/02 00:24:15;;;;;;;10.88;6.90;;;;;;;3.48;70.21;99428.44;1774149;79;22289;-41
2021/01/02 00:26:46;;;;;;;12.53;7.65;;;;;;;3.45;70.35;99439.77;1773331;79;21162;-41
2021/01/02 00:29:22;;;;;;;10.18;6.60;;;;;;;3.37;70.32;99441.33;1789605;79;21094;-41
2021/01/02 00:32:05;;;;;;;10.58;7.20;;;;;;;3.36;70.32;99452.34;1775992;79;21115;-41
2021/01/02 00:34:47;;;;;;;9.70;7.10;;;;;;;3.42;69.96;99455.13;1738954;81;21164;-41
2021/01/02 00:37:24;;;;;;;9.50;6.30;;;;;;;3.41;70.00;99460.25;1773013;80;21192;-41
2021/01/02 00:40:01;;;;;;;11.68;7.55;;;;;;;3.38;69.83;99464.89;1767984;79;21146;-41
2021/01/02 00:42:32;;;;;;;10.93;7.25;;;;;;;3.32;69.76;99468.26;1769690;79;21679;-41
2021/01/02 00:45:03;;;;;;;11.03;7.35;;;;;;;3.34;69.41;99469.30;1766777;79;21550;-41
2021/01/02 00:47:37;;;;;;;11.30;7.70;;;;;;;3.38;69.33;99473.73;1788988;79;21092;-41
2021/01/02 00:50:10;;;;;;;11.90;7.22;;;;;;;3.33;69.26;99477.09;1782067;79;21359;-41
2021/01/02 00:52:46;;;;;;;12.37;6.75;;;;;;;3.27;69.30;99476.42;1773566;79;21020;-41
2021/01/02 00:55:51;;;;;;;10.35;6.50;;;;;;;3.22;68.82;99477.89;1768352;79;21139;-41
2021/01/02 00:58:43;;;;;;;8.98;6.33;;;;;;;3.18;69.00;99490.87;1766823;79;20988;-41
2021/01/02 01:01:27;;;;;;;11.22;7.37;;;;;;;3.18;69.04;99482.84;1743417;81;21167;-41
2021/01/02 01:04:17;;;;;;;10.58;7.10;;;;;;;3.25;68.95;99489.87;1777182;79;21368;-41
2021/01/02 01:06:45;;;;;;;12.35;7.67;;;;;;;3.21;69.18;99491.05;1784529;79;21146;-41
2021/01/02 01:09:14;;;;;;;12.68;7.78;;;;;;;3.17;69.33;99489.29;1781434;79;21080;-41
2021/01/02 01:11:45;;;;;;;11.95;7.33;;;;;;;3.14;69.33;99485.89;1730359;81;21170;-41
2021/01/02 01:14:13;;;;;;;11.03;7.65;;;;;;;3.19;69.37;99491.13;1729307;81;21182;-41
2021/01/02 01:16:44;;;;;;;10.85;7.30;;;;;;;3.25;69.33;99497.91;1718470;82;21197;-41
2021/01/02 01:19:12;;;;;;;11.75;7.37;;;;;;;3.27;69.05;99499.75;1789482;79;21139;-41
2021/01/02 01:21:45;;;;;;;9.63;7.60;;;;;;;3.22;68.20;99499.33;1728363;81;21194;-41
2021/01/02 01:24:24;;;;;;;12.45;8.23;;;;;;;3.16;68.38;99505.11;1712913;81;21229;-41
2021/01/02 01:27:15;;;;;;;9.10;6.35;;;;;;;3.11;68.40;99511.39;1731335;82;21175;-41
2021/01/02 01:29:52;;;;;;;13.10;8.20;;;;;;;3.10;68.23;99517.08;1711312;82;21250;-41
2021/01/02 01:32:23;;;;;;;11.28;7.15;;;;;;;3.09;68.10;99508.25;1727050;82;21071;-41
2021/01/02 01:35:01;;;;;;;11.20;7.28;;;;;;;3.04;68.18;99524.44;1765377;79;21138;-41
2021/01/02 01:37:33;;;;;;;12.63;7.60;;;;;;;2.96;68.03;99509.88;1713704;81;21617;-41
2021/01/02 01:40:04;;;;;;;9.75;6.55;;;;;;;2.88;67.86;99515.19;1713035;82;21628;-41
2021/01/02 01:42:43;;;;;;;9.48;6.75;;;;;;;2.87;67.90;99518.95;1723294;82;21362;-41
2021/01/02 01:45:40;;;;;;;10.05;7.28;;;;;;;2.89;67.70;99517.56;1721095;82;21708;-41
2021/01/02 01:48:16;;;;;;;12.18;7.92;;;;;;;2.88;67.50;99523.22;1698255;82;21159;-41
2021/01/02 01:51:13;;;;;;;11.38;7.78;;;;;;;2.80;67.66;99524.75;1739084;82;21160;-41
2021/01/02 01:54:00;;;;;;;10.78;7.20;;;;;;;2.77;67.98;99522.66;1717359;82;21119;-41
2021/01/02 01:56:32;;;;;;;11.95;7.75;;;;;;;2.80;68.19;99526.09;1730381;82;21208;-41
2021/01/02 01:59:17;;;;;;;10.20;7.22;;;;;;;2.85;68.07;99536.67;1713980;82;21059;-41
2021/01/02 02:01:53;;;;;;;10.25;7.58;;;;;;;2.87;68.32;99538.48;1718885;82;21163;-41
2021/01/02 02:04:57;;;;;;;12.88;8.55;;;;;;;2.83;67.91;99545.55;1717121;82;21164;-41
2021/01/02 02:07:43;;;;;;;11.28;7.80;;;;;;;2.79;68.22;99548.59;1768373;81;21162;-41
2021/01/02 02:10:23;;;;;;;10.68;7.10;;;;;;;2.80;68.57;99562.77;1725477;81;22087;-41
2021/01/02 02:12:55;;;;;;;10.67;7.53;;;;;;;2.87;68.60;99563.12;1717906;82;21166;-41
2021/01/02 02:15:27;;;;;;;11.97;7.40;;;;;;;2.93;68.51;99565.39;1730118;81;21044;-41
2021/01/02 02:18:06;;;;;;;10.88;7.90;;;;;;;2.93;68.49;99565.39;1752724;81;21169;-41
2021/01/02 02:20:36;;;;;;;11.53;7.92;;;;;;;2.91;68.55;99568.11;1707166;83;21182;-41
2021/01/02 02:23:08;;;;;;;12.35;7.97;;;;;;;2.82;68.54;99563.24;1739617;81;21381;-41
2021/01/02 02:26:00;;;;;;;11.22;7.75;;;;;;;2.80;68.85;99570.26;1740185;81;21201;-41
2021/01/02 02:28:54;;;;;;;10.32;7.72;;;;;;;2.85;68.97;99564.79;1725971;81;21165;-41
2021/01/02 02:31:24;;;;;;;12.20;7.75;;;;;;;2.99;68.79;99574.11;1727544;81;21193;-41
2021/01/02 02:34:01;;;;;;;11.10;8.00;;;;;;;2.98;68.95;99586.70;1721677;82;21488;-41
2021/01/02 02:36:31;;;;;;;10.65;7.42;;;;;;;2.96;68.66;99592.09;1720997;82;23585;-41
2021/01/02 02:39:06;;;;;;;11.48;7.72;;;;;;;2.91;68.60;99598.37;1721932;82;21340;-41
2021/01/02 02:41:45;;;;;;;11.75;7.85;;;;;;;2.82;68.54;99592.70;1745245;81;21142;-41
2021/01/02 02:44:17;;;;;;;9.60;6.75;;;;;;;2.80;68.51;99591.68;1736122;80;21170;-41
2021/01/02 02:46:46;;;;;;;9.65;6.42;;;;;;;2.76;68.02;99592.02;1729649;81;21635;-41
2021/01/02 02:49:24;;;;;;;8.38;6.25;;;;;;;2.72;68.18;99595.05;1713001;83;21437;-41
2021/01/02 02:52:08;;;;;;;9.93;6.40;;;;;;;2.36;68.46;99546.88;1715870;81;21040;-41
2021/01/02 02:54:36;;;;;;;9.50;7.12;;;;;;;2.66;68.64;99599.50;1742410;81;21178;-41
2021/01/02 02:57:05;;;;;;;10.95;7.22;;;;;;;2.72;68.52;99601.75;1725883;81;21190;-41
2021/01/02 02:59:33;;;;;;;10.80;7.42;;;;;;;2.79;68.27;99610.17;1731868;81;21159;-41
2021/01/02 03:02:09;;;;;;;9.03;6.97;;;;;;;2.78;68.53;99604.56;1708704;82;22577;-41
2021/01/02 03:04:37;;;;;;;9.40;7.05;;;;;;;2.76;68.53;99608.08;1764828;81;21162;-41
2021/01/02 03:07:06;;;;;;;11.45;6.80;;;;;;;2.74;68.74;99606.27;1782830;79;21099;-41
2021/01/02 03:09:34;;;;;;;9.93;6.40;;;;;;;2.75;68.80;99617.77;1781663;79;21158;-41
2021/01/02 03:12:05;;;;;;;10.88;6.72;;;;;;;2.82;68.85;99614.91;1729439;81;21664;-41
2021/01/02 03:14:34;;;;;;;9.85;6.65;;;;;;;2.91;68.61;99616.31;1710358;82;21272;-41
2021/01/02 03:17:03;;;;;;;10.38;7.20;;;;;;;2.88;68.74;99613.70;1790035;79;21056;-41
2021/01/02 03:19:32;;;;;;;9.85;7.12;;;;;;;2.84;68.80;99619.97;1770875;79;21099;-41
2021/01/02 03:22:00;;;;;;;11.00;7.20;;;;;;;2.78;68.94;99621.97;1765658;79;21179;-41
2021/01/02 03:24:29;;;;;;;10.25;7.15;;;;;;;2.65;69.05;99609.41;1767294;79;21166;-41
2021/01/02 03:26:57;;;;;;;11.08;6.90;;;;;;;2.68;69.33;99622.18;1743578;81;21045;-41
2021/01/02 03:29:26;;;;;;;11.05;7.83;;;;;;;2.72;69.33;99626.38;1722403;81;21190;-41
2021/01/02 03:31:55;;;;;;;10.10;7.17;;;;;;;2.69;69.19;99630.47;1721466;82;21184;-41
2021/01/02 03:34:23;;;;;;;10.68;7.22;;;;;;;2.62;69.35;99634.08;1784070;79;21482;-41
2021/01/02 03:36:51;;;;;;;10.90;7.72;;;;;;;2.56;69.46;99639.31;1777486;79;21115;-41
2021/01/02 03:39:20;;;;;;;13.68;8.78;;;;;;;2.45;69.76;99641.95;1768763;79;21475;-41
2021/01/02 03:41:49;;;;;;;11.22;7.87;;;;;;;2.36;69.47;99645.88;1765085;80;21539;-41
2021/01/02 03:44:17;;;;;;;12.55;8.95;;;;;;;2.33;69.49;99651.00;1789662;79;21103;-41
2021/01/02 03:46:46;;;;;;;14.85;8.83;;;;;;;2.18;69.59;99654.22;1782253;79;21011;-41
2021/01/02 03:49:14;;;;;;;14.30;8.70;;;;;;;2.10;69.79;99658.94;1745137;80;21370;-41
2021/01/02 03:51:42;;;;;;;12.95;8.83;;;;;;;1.96;70.00;99639.41;1786322;79;23508;-41
2021/01/02 03:54:11;;;;;;;14.65;8.78;;;;;;;2.11;70.19;99657.84;1782517;79;21146;-41
2021/01/02 03:56:39;;;;;;;12.95;8.80;;;;;;;2.19;69.89;99668.39;1781920;80;20988;-41
2021/01/02 03:59:08;;;;;;;16.40;9.50;;;;;;;2.16;69.97;99671.13;1791753;79;21134;-41
2021/01/02 04:01:36;;;;;;;14.47;9.00;;;;;;;2.14;70.15;99675.97;1789335;79;21173;-41
2021/01/02 04:04:04;;;;;;;13.08;8.53;;;;;;;2.14;70.37;99679.98;1797279;79;21296;-41
2021/01/02 04:06:33;;;;;;;16.02;10.08;;;;;;;2.15;70.29;99682.91;1781718;80;21435;-41
2021/01/02 04:09:01;;;;;;;13.62;9.60;;;;;;;2.19;70.28;99690.59;1782463;79;21012;-41
2021/01/02 04:11:29;;;;;;;13.22;9.13;;;;;;;2.16;70.37;99684.50;1800804;79;21015;-41
2021/01/02 04:13:58;;;;;;;16.82;9.65;;;;;;;2.11;70.27;99691.28;1804702;79;21118;-41
2021/01/02 04:16:28;;;;;;;12.90;8.83;;;;;;;2.08;70.57;99689.17;1813861;79;21995;-41
2021/01/02 04:18:56;;;;;;;;;;;;;;;2.10;70.69;99693.70;1757160;79;21173;-41
2021/01/02 04:21:26;;;;;;;14.03;9.00;;;;;;;2.17;70.61;99691.45;1792503;79;20434;-41
2021/01/02 04:23:54;;;;;;;15.93;10.05;;;;;;;2.09;70.87;99697.45;1788143;79;21153;-41
2021/01/02 04:26:23;;;;;;;13.98;8.95;;;;;;;2.05;70.63;99699.14;1794333;79;21158;-41
2021/01/02 04:28:52;;;;;;;15.95;9.20;;;;;;;2.05;70.97;99701.02;1778340;79;21580;-41
2021/01/02 04:31:21;;;;;;;14.78;9.38;;;;;;;2.06;71.21;99707.41;1783099;79;21024;-41
2021/01/02 04:33:49;;;;;;;13.58;9.73;;;;;;;2.14;71.05;99713.41;1795014;79;21138;-41
2021/01/02 04:36:19;;;;;;;13.88;9.33;;;;;;;2.12;71.03;99719.62;1792874;79;21165;-41
2021/01/02 04:38:47;;;;;;;15.45;9.00;;;;;;;2.08;71.15;99721.27;1781739;79;21581;-41
2021/01/02 04:41:15;;;;;;;13.85;8.83;;;;;;;2.04;71.09;99724.28;1794311;79;21427;-41
2021/01/02 04:43:46;;;;;;;11.88;7.85;;;;;;;2.10;71.12;99730.34;1784492;79;21011;-41
2021/01/02 04:46:15;;;;;;;13.25;8.80;;;;;;;2.17;71.13;99735.58;1785916;79;20996;-41
2021/01/02 04:48:45;;;;;;;15.43;9.98;;;;;;;2.13;70.78;99734.55;1813777;79;21131;-41
2021/01/02 04:51:13;;;;;;;;;;;;;;;2.09;71.01;99736.23;1787687;79;21146;-41
2021/01/02 04:53:41;;;;;;;14.38;8.18;;;;;;;2.06;71.28;99740.84;1781556;80;22008;-41
2021/01/02 04:56:10;;;;;;;14.07;8.78;;;;;;;2.07;71.49;99749.13;1791456;79;21584;-41
2021/01/02 04:58:43;;;;;;;14.40;9.90;;;;;;;2.16;71.21;99743.34;1800184;79;21165;-41
2021/01/02 05:01:12;;;;;;;15.18;9.35;;;;;;;2.14;71.23;99746.84;1783374;79;21585;-41
2021/01/02 05:03:45;;;;;;;15.00;8.87;;;;;;;2.10;71.13;99753.08;1790332;77;21126;-41
2021/01/02 05:06:22;;;;;;;12.60;8.23;;;;;;;2.10;71.13;99753.08;1795096;79;21529;-41
2021/01/02 05:08:51;;;;;;;11.95;8.08;;;;;;;2.09;71.65;99748.27;1781459;80;21174;-41
2021/01/02 05:11:19;;;;;;;12.93;9.28;;;;;;;2.17;71.43;99759.64;1799096;79;21150;-41
2021/01/02 05:13:49;;;;;;;14.28;9.45;;;;;;;2.13;70.98;99752.50;1813325;78;21580;-41
2021/01/02 05:16:38;;;;;;;14.23;9.33;;;;;;;2.10;71.51;99771.25;1796195;77;21714;-41
2021/01/02 05:19:09;;;;;;;12.75;8.70;;;;;;;2.09;71.67;99773.67;1787060;79;21193;-42
2021/01/02 05:21:48;;;;;;;11.70;8.60;;;;;;;2.10;71.62;99773.93;1784027;79;21162;-42
2021/01/02 05:24:21;;;;;;;12.23;8.20;;;;;;;2.16;71.35;99775.44;1781997;79;21142;-42
2021/01/02 05:27:00;;;;;;;13.43;9.00;;;;;;;2.15;71.51;99784.55;1782148;79;21146;-42
2021/01/02 05:29:29;;;;;;;11.95;7.90;;;;;;;2.15;71.75;99786.42;1781591;79;21162;-42
2021/01/02 05:32:02;;;;;;;12.75;8.13;;;;;;;2.15;71.87;99783.20;1762620;79;21577;-42
2021/01/02 05:34:32;;;;;;;13.48;9.40;;;;;;;2.16;71.96;99788.02;1813806;79;21574;-42
2021/01/02 05:37:04;;;;;;;;;;;;;;;2.27;71.92;99799.34;1788547;79;21154;-43
2021/01/02 05:39:50;;;;;;;16.40;9.23;;;;;;;2.26;71.95;99799.09;1812917;79;20279;-42
2021/01/02 05:42:20;;;;;;;11.73;7.80;;;;;;;2.14;72.31;99808.36;1796492;79;21260;-41
2021/01/02 05:44:49;;;;;;;12.88;8.00;;;;;;;2.14;72.51;99816.92;1776021;79;21598;-42
2021/01/02 05:47:19;;;;;;;15.25;9.45;;;;;;;2.18;72.50;99814.70;1766699;79;21159;-42
2021/01/02 05:49:49;;;;;;;12.75;9.23;;;;;;;2.27;72.57;99814.85;1713125;83;21569;-42
2021/01/02 05:52:19;;;;;;;12.37;8.25;;;;;;;2.32;72.45;99818.78;1717517;82;21676;-42
2021/01/02 05:54:50;;;;;;;14.00;8.85;;;;;;;2.36;72.55;99816.30;1765023;79;21538;-42
2021/01/02 05:57:29;;;;;;;15.88;9.05;;;;;;;2.38;72.57;99811.44;1771454;79;21147;-42
2021/01/02 05:59:58;;;;;;;12.00;8.15;;;;;;;2.40;72.57;99826.66;1760473;79;21123;-42
2021/01/02 06:02:31;;;;;;;14.38;8.58;;;;;;;2.45;72.44;99823.91;1771363;79;21609;-42
2021/01/02 06:05:03;;;;;;;15.15;9.18;;;;;;;2.48;72.42;99824.64;1768791;79;21119;-42
2021/01/02 06:07:40;;;;;;;13.43;9.33;;;;;;;2.48;72.54;99838.02;1779555;79;21107;-42
2021/01/02 06:10:10;;;;;;;14.30;8.68;;;;;;;2.47;72.57;99836.45;1767088;79;23589;-42
2021/01/02 06:12:40;;;;;;;13.88;8.38;;;;;;;2.47;72.58;99835.89;1766379;79;21027;-42
2021/01/02 06:15:15;;;;;;;;;;;;;;;2.52;72.52;99843.03;1767764;79;21016;-42
2021/01/02 06:17:46;;;;;;;13.55;8.50;;;;;;;2.54;72.55;99844.88;1728435;82;20246;-42
2021/01/02 06:20:16;;;;;;;13.28;8.75;;;;;;;2.44;72.88;99848.53;1727955;82;21158;-42
2021/01/02 06:22:45;;;;;;;13.98;8.78;;;;;;;2.45;72.84;99852.80;1738412;81;21276;-42
2021/01/02 06:25:14;;;;;;;12.85;8.43;;;;;;;2.48;72.87;99848.73;1714721;82;21154;-42
2021/01/02 06:27:45;;;;;;;13.43;9.05;;;;;;;2.57;72.78;99850.97;1778092;78;21621;-42
2021/01/02 06:30:18;;;;;;;12.35;8.13;;;;;;;2.62;72.65;99850.88;1786053;79;21578;-42
2021/01/02 06:32:47;;;;;;;15.65;9.95;;;;;;;2.65;72.56;99857.01;1765745;79;21150;-42
2021/01/02 06:35:19;;;;;;;14.10;8.93;;;;;;;2.64;72.34;99862.11;1764857;80;21223;-42
2021/01/02 06:37:59;;;;;;;13.43;8.65;;;;;;;2.70;72.35;99874.86;1765331;79;21135;-42
2021/01/02 06:40:30;;;;;;;13.03;8.30;;;;;;;2.78;72.15;99870.16;1765203;79;21119;-42
2021/01/02 06:43:00;;;;;;;15.63;9.23;;;;;;;2.80;71.72;99866.66;1791305;79;21028;-42
2021/01/02 06:45:43;;;;;;;13.88;8.58;;;;;;;2.78;71.69;99879.52;1796553;79;21158;-42
2021/01/02 06:48:26;;;;;;;13.83;9.28;;;;;;;2.76;71.98;99875.80;1791051;79;21189;-42
2021/01/02 06:50:57;;;;;;;13.80;8.63;;;;;;;2.77;72.24;99881.95;1794591;79;21167;-42
2021/01/02 06:53:36;;;;;;;12.25;7.97;;;;;;;2.81;72.12;99885.65;1772669;79;21191;-42
2021/01/02 06:56:06;;;;;;;11.55;7.92;;;;;;;2.90;71.80;99885.21;1747729;79;21266;-42
2021/01/02 06:58:48;;;;;;;13.15;7.90;;;;;;;2.93;71.78;99887.29;1767189;79;21032;-42
2021/01/02 07:01:22;;;;;;;15.53;9.83;;;;;;;2.93;71.65;99893.44;1796625;79;21400;-42
2021/01/02 07:03:50;;;;;;;13.93;9.03;;;;;;;2.91;71.70;99896.95;1796432;79;21179;-42
2021/01/02 07:06:24;;;;;;;12.43;8.77;;;;;;;2.93;71.44;99906.83;1775961;79;21590;-42
2021/01/02 07:09:17;;;;;;;13.58;8.20;;;;;;;2.98;71.55;99908.08;1765020;81;21720;-42
2021/01/02 07:11:47;;;;;;;14.03;9.10;;;;;;;3.01;71.40;99913.38;1788042;79;21538;-42
2021/01/02 07:14:22;;;;;;;14.05;8.50;;;;;;;2.99;71.09;99915.03;1778439;79;21370;-42
2021/01/02 07:17:12;;;;;;;12.25;7.45;;;;;;;2.99;71.36;99909.67;1765194;79;21029;-42
2021/01/02 07:19:46;;;;;;;12.15;8.30;;;;;;;3.01;71.54;99916.85;1774378;79;21135;-42
2021/01/02 07:22:20;;;;;;;13.05;8.73;;;;;;;3.05;71.57;99917.84;1767222;79;21395;-42
2021/01/02 07:27:43;;;;;;;11.28;7.75;;;;;;;3.23;71.45;99924.77;1808768;77;22694;-41
2021/01/02 07:30:12;;;;;;;13.22;8.00;;;;;;;3.20;70.91;99932.84;1811190;79;20976;-41
2021/01/02 07:32:43;;;;;;;11.80;8.58;;;;;;;3.18;71.13;99939.61;1748143;80;21377;-41
2021/01/02 07:35:15;;;;;;;10.90;7.70;;;;;;;3.19;71.32;99945.22;1753056;81;21013;-41
2021/01/02 07:37:45;;;;;;;13.98;8.50;;;;;;;3.27;71.41;99946.66;1739965;82;21045;-41
2021/01/02 07:40:17;;;;;;;12.73;8.13;;;;;;;3.33;71.06;99949.50;1748895;82;21027;-41
2021/01/02 07:42:51;;;;;;;12.03;8.45;;;;;;;3.33;71.17;99951.38;1772598;80;20917;-41
2021/01/02 07:45:23;;;;;;;11.97;7.50;;;;;;;3.31;71.24;99958.38;1724199;80;21597;-41
2021/01/02 07:47:55;;;;;;;11.63;7.40;;;;;;;3.32;71.13;99959.97;1752842;80;21009;-41
2021/01/02 07:50:28;;;;;;;12.93;7.97;;;;;;;3.32;70.71;99953.81;1740776;82;21076;-41
2021/01/02 07:53:04;;;;;;;12.18;8.43;;;;;;;3.37;71.03;99956.39;1746902;81;21035;-41
2021/01/02 07:55:33;;;;;;;11.43;7.60;;;;;;;3.38;70.72;99961.47;1749934;80;21223;-41
2021/01/02 07:58:02;;;;;;;12.55;8.40;;;;;;;3.35;70.91;99966.06;1770397;79;21449;-41
2021/01/02 08:00:30;;;;;;;12.07;7.60;;;;;;;3.34;71.18;99967.72;1750212;80;21211;-41
2021/01/02 08:03:04;;;;;;;10.38;7.03;;;;;;;3.35;71.21;99973.30;1724676;82;21165;-41
2021/01/02 08:05:33;;;;;;;11.43;7.50;;;;;;;3.39;71.15;99976.43;1757590;80;21609;-41
2021/01/02 08:08:02;;;;;;;12.80;8.30;;;;;;;3.41;71.32;99975.60;1779239;80;21119;-41
2021/01/02 08:10:32;;;;;;;13.85;9.33;;;;;;;3.41;71.28;99980.16;1780222;80;22352;-41
2021/01/02 08:13:00;;;;;;;14.58;8.73;;;;;;;3.41;71.66;99990.88;1778178;80;21182;-41
2021/01/02 08:15:37;;;;;;;11.28;7.78;;;;;;;3.44;71.98;99984.92;1747005;80;21587;-41
2021/01/02 08:18:09;;;;;;;10.43;7.50;;;;;;;3.52;71.91;99983.45;1749297;82;21124;-42
2021/01/02 08:20:38;;;;;;;12.90;8.30;;;;;;;3.59;71.67;99995.91;1755317;80;21571;-41
2021/01/02 08:23:09;;;;;;;14.65;8.70;;;;;;;3.59;71.49;99991.34;1752050;81;21404;-41
2021/01/02 08:25:37;;;;;;;12.33;8.60;;;;;;;3.55;71.19;99999.73;1743685;80;21037;-41
2021/01/02 08:28:06;;;;;;;9.98;7.40;;;;;;;3.53;71.64;99984.51;1766460;80;21416;-41
2021/01/02 08:30:35;;;;;;;12.15;7.80;;;;;;;3.55;71.42;99987.67;1785996;80;21613;-41
2021/01/02 08:33:05;;;;;;;12.28;8.30;;;;;;;3.61;71.30;99990.50;1786070;80;21095;-41
2021/01/02 08:35:38;;;;;;;10.80;7.75;;;;;;;3.64;71.20;99999.83;1755835;80;21193;-41
2021/01/02 08:38:12;;;;;;;13.98;8.90;;;;;;;3.62;71.29;100003.37;1780138;80;21044;-41
2021/01/02 08:40:49;;;;;;;11.57;7.70;;;;;;;3.60;71.48;100010.91;1815580;79;21047;-41
2021/01/02 08:43:24;;;;;;;12.30;8.78;;;;;;;3.64;71.31;100012.69;1803115;79;21094;-41
2021/01/02 08:46:03;;;;;;;11.68;8.63;;;;;;;3.70;71.14;100010.17;1811384;79;21174;-41
2021/01/02 08:48:31;;;;;;;14.25;8.53;;;;;;;3.70;71.47;100011.51;1815708;79;22108;-42
2021/01/02 08:51:01;;;;;;;13.65;8.78;;;;;;;3.66;71.12;100010.52;1811076;79;21608;-42
2021/01/02 08:53:32;;;;;;;12.07;8.10;;;;;;;3.64;71.43;100014.58;1790338;79;21149;-42
2021/01/02 08:56:24;;;;;;;12.93;8.93;;;;;;;3.65;71.58;100015.62;1786121;79;21785;-42
2021/01/02 09:00:56;;;;;;;12.53;8.13;;;;;;;3.76;71.56;100011.67;1829796;78;23231;-39
2021/01/02 09:03:26;;;;;;;13.85;8.40;;;;;;;3.65;71.86;100016.97;1802659;79;21632;-38
2021/01/02 09:05:55;;;;;;;11.57;7.10;;;;;;;3.72;71.92;100017.92;1806289;79;22100;-38
2021/01/02 09:08:24;;;;;;;12.65;8.38;;;;;;;3.91;71.87;100018.08;1787526;79;21601;-39
2021/01/02 09:10:56;;;;;;;12.75;8.58;;;;;;;4.23;70.80;100015.78;1816187;79;20984;-38
2021/01/02 09:13:28;;;;;;;14.10;9.55;;;;;;;4.41;70.07;100015.39;1801303;79;21051;-39
2021/01/02 09:16:05;;;;;;;12.60;8.58;;;;;;;4.55;69.83;100025.54;1783987;80;21011;-38
2021/01/02 09:18:37;;;;;;;12.35;8.08;;;;;;;4.60;69.78;100026.77;1783441;80;21182;-39
2021/01/02 09:21:16;;;;;;;12.58;8.45;;;;;;;4.72;69.93;100018.98;1784141;80;20944;-39
2021/01/02 09:23:46;;;;;;;10.80;7.55;;;;;;;4.97;69.17;100020.82;1784104;79;21007;-39
2021/01/02 09:26:31;;;;;;;9.60;7.25;;;;;;;5.29;68.23;100020.54;1804191;79;21451;-39
2021/01/02 09:29:02;;;;;;;12.53;8.23;;;;;;;5.54;66.75;100017.20;1788371;79;21142;-38
2021/01/02 09:31:37;;;;;;;11.60;7.78;;;;;;;5.76;66.54;100019.59;1746695;81;21376;-38
2021/01/02 09:34:05;;;;;;;9.50;7.05;;;;;;;5.94;65.75;100023.95;1764622;80;21436;-39
2021/01/02 09:36:33;;;;;;;11.10;7.92;;;;;;;6.05;65.06;100032.75;1740785;82;20984;-39
2021/01/02 09:39:05;;;;;;;11.33;7.83;;;;;;;6.08;64.53;100028.10;1724640;82;21155;-38
2021/01/02 09:41:34;;;;;;;10.15;6.67;;;;;;;6.04;64.31;100033.08;1744714;82;21152;-39
2021/01/02 09:44:03;;;;;;;10.80;8.00;;;;;;;5.97;64.25;100034.08;1765879;78;21351;-38
2021/01/02 09:46:33;;;;;;;11.40;7.28;;;;;;;5.99;64.75;100032.67;1741869;82;21166;-39
2021/01/02 09:49:02;;;;;;;10.13;7.72;;;;;;;6.08;64.37;100026.77;1745909;82;21109;-39
2021/01/02 09:51:31;;;;;;;11.65;7.72;;;;;;;6.12;63.88;100033.64;1745502;80;21663;-39
2021/01/02 09:53:59;;;;;;;13.35;8.68;;;;;;;6.05;64.51;100031.98;1734247;80;21122;-39
2021/01/02 09:56:28;;;;;;;12.15;8.10;;;;;;;5.92;64.38;100028.84;1733982;81;21258;-38
2021/01/02 09:58:56;;;;;;;12.20;8.18;;;;;;;5.77;64.66;100031.91;1753806;80;21196;-39
2021/01/02 10:01:25;;;;;;;11.75;8.10;;;;;;;5.59;65.14;100034.55;1753861;81;21148;-38
2021/01/02 10:03:53;;;;;;;11.55;8.43;;;;;;;5.53;65.75;100039.81;1725734;81;21166;-38
2021/01/02 10:06:22;;;;;;;10.67;8.27;;;;;;;5.59;65.85;100033.20;1740552;81;21187;-39
2021/01/02 10:08:51;;;;;;;11.57;8.63;;;;;;;5.78;65.43;100041.03;1736760;82;21384;-39
2021/01/02 10:11:21;;;;;;;12.93;7.70;;;;;;;6.00;64.53;100033.47;1742852;81;21193;-39
2021/01/02 10:13:49;;;;;;;9.98;7.42;;;;;;;6.21;63.65;100029.07;1727401;82;21110;-39
2021/01/02 10:16:18;;;;;;;10.80;8.15;;;;;;;6.33;63.08;100025.23;1789951;79;21131;-39
2021/01/02 10:18:46;;;;;;;10.43;8.05;;;;;;;6.41;62.98;100029.03;1803971;79;21134;-39
2021/01/02 10:21:17;;;;;;;15.85;7.78;;;;;;;6.45;63.11;100032.12;1799930;79;21376;-39
2021/01/02 10:23:45;;;;;;;11.30;8.20;;;;;;;6.52;63.22;100033.01;1782725;79;21166;-39
2021/01/02 10:26:22;;;;;;;11.53;8.48;;;;;;;6.68;62.53;100031.99;1772873;79;21170;-39
2021/01/02 10:28:50;;;;;;;12.95;8.55;;;;;;;6.86;62.17;100036.27;1773044;79;21021;-39
2021/01/02 10:31:22;;;;;;;8.90;7.17;;;;;;;7.01;61.46;100033.09;1772722;81;21220;-40
2021/01/02 10:33:53;;;;;;;13.22;8.45;;;;;;;7.10;61.22;100037.91;1791465;79;21353;-39
2021/01/02 10:36:22;;;;;;;12.23;8.38;;;;;;;7.09;60.63;100034.17;1795416;79;21586;-39
2021/01/02 10:38:50;;;;;;;11.63;8.30;;;;;;;7.09;61.26;100036.87;1729078;82;21130;-39
2021/01/02 10:41:18;;;;;;;11.03;8.10;;;;;;;7.12;61.41;100039.71;1738048;82;21733;-39
2021/01/02 10:43:49;;;;;;;9.93;7.97;;;;;;;7.18;61.64;100039.79;1759813;80;21159;-39
2021/01/02 10:46:18;;;;;;;10.30;7.70;;;;;;;7.33;61.11;100046.03;1714262;82;21406;-39
2021/01/02 10:48:48;;;;;;;11.80;8.30;;;;;;;7.48;60.10;100046.07;1752735;81;21153;-39
2021/01/02 10:51:18;;;;;;;11.40;8.35;;;;;;;7.60;59.49;100046.18;1747955;79;21164;-39
2021/01/02 10:53:46;;;;;;;11.00;8.50;;;;;;;7.59;58.85;100049.22;1733704;79;21208;-40
2021/01/02 10:56:19;;;;;;;10.90;7.55;;;;;;;7.48;59.11;100041.23;1733369;82;21177;-39
2021/01/02 10:58:48;;;;;;;10.28;8.15;;;;;;;7.45;59.38;100048.63;1720073;82;21980;-39
2021/01/02 11:01:17;;;;;;;10.40;7.33;;;;;;;7.43;59.81;100042.99;1739017;81;21592;-39
2021/01/02 11:03:46;;;;;;;11.05;8.15;;;;;;;7.55;60.07;100047.70;1769026;79;21163;-39
2021/01/02 11:06:15;;;;;;;12.75;8.85;;;;;;;7.67;59.51;100047.05;1761341;80;21156;-39
2021/01/02 11:08:45;;;;;;;9.63;7.10;;;;;;;7.76;59.26;100046.45;1710368;81;21185;-39
2021/01/02 11:11:21;;;;;;;10.20;7.72;;;;;;;7.82;59.20;100049.21;1717952;81;21177;-39
2021/01/02 11:13:49;;;;;;;10.95;8.05;;;;;;;7.82;58.50;100048.66;1782826;79;21156;-40
2021/01/02 11:16:18;;;;;;;13.45;8.48;;;;;;;7.84;58.65;100036.20;1726500;83;21016;-39
2021/01/02 11:18:46;;;;;;;10.50;7.37;;;;;;;7.81;58.79;100042.22;1733840;82;21159;-40
2021/01/02 11:21:15;;;;;;;9.95;7.85;;;;;;;7.77;58.84;100039.39;1780025;79;22211;-39
2021/01/02 11:23:43;;;;;;;10.20;7.85;;;;;;;7.68;58.48;100035.14;1750121;81;21376;-39
2021/01/02 11:26:12;;;;;;;10.58;8.43;;;;;;;7.57;59.12;100032.55;1805701;79;21203;-39
2021/01/02 11:28:41;;;;;;;11.22;8.20;;;;;;;7.42;59.73;100037.36;1733123;82;21015;-39
2021/01/02 11:31:10;;;;;;;12.20;8.93;;;;;;;7.34;60.13;100039.53;1771398;79;27511;-39
2021/01/02 11:33:38;;;;;;;13.60;8.83;;;;;;;7.31;60.58;100038.80;1787539;79;21146;-39
2021/01/02 11:36:07;;;;;;;12.13;8.75;;;;;;;7.28;60.45;100031.36;1797896;78;21931;-39
2021/01/02 11:38:36;;;;;;;11.43;9.05;;;;;;;7.26;60.70;100038.97;1794809;79;21191;-39
2021/01/02 11:41:04;;;;;;;10.10;8.05;;;;;;;7.15;61.08;100040.44;1793718;79;21167;-39
2021/01/02 11:43:32;;;;;;;11.75;8.80;;;;;;;7.06;61.35;100042.36;1738995;81;21171;-39
2021/01/02 11:46:01;;;;;;;10.98;8.03;;;;;;;7.17;61.40;100047.64;1703315;79;21164;-39
2021/01/02 11:48:30;;;;;;;11.03;8.20;;;;;;;7.39;61.15;100045.30;1731436;82;21490;-39
2021/01/02 11:50:59;;;;;;;11.55;8.25;;;;;;;7.56;59.99;100049.30;1741127;81;21175;-39
2021/01/02 11:53:29;;;;;;;11.15;8.35;;;;;;;7.63;59.95;100051.51;1740080;81;21769;-39
2021/01/02 11:55:58;;;;;;;11.03;8.38;;;;;;;7.61;60.04;100053.72;1734934;81;21339;-39
2021/01/02 11:58:28;;;;;;;9.98;8.48;;;;;;;7.48;60.00;100053.38;1725670;81;21202;-39
2021/01/02 12:00:56;;;;;;;11.80;7.85;;;;;;;7.30;60.75;100048.58;1713587;83;21573;-39
2021/01/02 12:03:27;;;;;;;11.15;8.28;;;;;;;7.19;61.13;100056.21;1710858;83;21204;-39